Time;durP1;ratioP1;P1;durP2;ratioP2;P2;SDS_P1;SDS_P2;PMS_P1;PMS_P2;Temp;Humidity;BMP_temperature;BMP_pressure;BME280_temperature;BME280_humidity;BME280_pressure;Samples;Min_cycle;Max_cycle;Signal;HPM_P1;HPM_P2
2023/03/07 00:01:26;;;;;;;34.20;15.30;;;;;;;7.93;52.35;97592.06;4487496;31;20080;-78
2023/03/07 00:03:52;;;;;;;31.75;14.30;;;;;;;7.68;53.16;97601.47;4487545;31;20097;-78
2023/03/07 00:06:17;;;;;;;33.17;14.77;;;;;;;7.87;52.70;97603.78;4487564;31;20072;-78
2023/03/07 00:08:43;;;;;;;31.08;13.65;;;;;;;7.88;52.76;97601.09;4487455;31;20134;-78
2023/03/07 00:11:08;;;;;;;32.80;13.45;;;;;;;7.91;52.80;97602.66;4486091;32;20149;-78
2023/03/07 00:13:35;;;;;;;34.20;15.38;;;;;;;7.95;52.76;97612.00;4487470;31;20080;-78
2023/03/07 00:16:02;;;;;;;30.85;13.27;;;;;;;7.73;53.01;97609.91;4487434;31;20084;-79
2023/03/07 00:18:28;;;;;;;36.00;14.15;;;;;;;7.86;52.54;97608.19;4486073;32;20163;-78
2023/03/07 00:21:04;;;;;;;26.20;12.05;;;;;;;7.93;52.38;97613.06;4487375;31;20096;-78
2023/03/07 00:23:29;;;;;;;30.30;14.32;;;;;;;7.98;52.23;97617.06;4486303;32;20398;-78
2023/03/07 00:26:19;;;;;;;35.53;14.80;;;;;;;7.92;52.07;97611.34;4487045;31;20080;-78
2023/03/07 00:28:46;;;;;;;35.70;16.40;;;;;;;8.01;51.81;97622.09;4487149;32;20073;-78
2023/03/07 00:31:11;;;;;;;40.80;16.85;;;;;;;7.99;51.75;97608.25;4487402;31;20140;-78
2023/03/07 00:33:38;;;;;;;35.83;15.57;;;;;;;7.95;51.93;97619.03;4486194;32;20379;-78
2023/03/07 00:36:06;;;;;;;33.42;14.87;;;;;;;7.87;52.27;97617.75;4486240;32;20088;-78
2023/03/07 00:38:33;;;;;;;34.33;15.75;;;;;;;7.67;52.78;97618.97;4487278;31;20450;-78
2023/03/07 00:41:07;;;;;;;32.92;15.50;;;;;;;7.88;52.18;97614.19;4486251;32;20101;-78
2023/03/07 00:43:33;;;;;;;34.35;16.00;;;;;;;7.86;52.20;97615.19;4486148;32;20493;-78
2023/03/07 00:45:59;;;;;;;36.42;15.80;;;;;;;7.86;52.17;97607.34;4487121;31;20077;-78
2023/03/07 00:48:25;;;;;;;34.05;15.85;;;;;;;7.64;52.82;97607.84;4487005;31;20133;-78
2023/03/07 00:50:51;;;;;;;34.10;16.15;;;;;;;7.81;52.42;97610.25;4487019;31;20515;-78
2023/03/07 00:53:18;;;;;;;32.85;15.45;;;;;;;7.85;52.24;97608.28;4485960;32;20112;-78
2023/03/07 00:56:16;;;;;;;29.85;14.18;;;;;;;7.83;52.11;97602.31;4486907;31;20092;-78
2023/03/07 00:58:42;;;;;;;33.72;15.77;;;;;;;7.87;51.87;97599.38;4471100;32;20088;-78
2023/03/07 01:01:09;;;;;;;32.53;14.95;;;;;;;7.89;51.79;97599.28;4487161;32;20440;-78
2023/03/07 01:03:35;;;;;;;38.07;18.00;;;;;;;7.90;51.93;97593.13;4486103;32;20096;-78
2023/03/07 01:06:02;;;;;;;38.42;17.37;;;;;;;7.79;52.48;97588.53;4486838;31;20106;-78
2023/03/07 01:08:27;;;;;;;34.20;16.07;;;;;;;7.90;52.24;97580.00;4486238;31;20099;-78
2023/03/07 01:10:57;;;;;;;38.67;17.58;;;;;;;7.66;52.96;97583.22;4486822;31;20088;-78
2023/03/07 01:13:23;;;;;;;35.80;16.48;;;;;;;7.77;52.67;97574.69;4472560;32;20459;-78
2023/03/07 01:15:48;;;;;;;38.50;17.00;;;;;;;7.90;52.46;97585.25;4485588;32;20085;-78
2023/03/07 01:18:14;;;;;;;34.63;16.05;;;;;;;7.65;53.15;97580.72;4486659;31;20081;-78
2023/03/07 01:20:40;;;;;;;37.40;16.85;;;;;;;7.79;52.66;97588.53;4486794;31;20441;-78
2023/03/07 01:23:05;;;;;;;39.58;17.73;;;;;;;7.74;52.59;97574.88;4485728;32;20475;-78
2023/03/07 01:25:31;;;;;;;36.17;16.40;;;;;;;7.84;52.22;97581.25;4486870;31;20124;-78
2023/03/07 01:27:56;;;;;;;34.35;16.30;;;;;;;7.84;52.32;97568.13;4485643;32;20106;-78
2023/03/07 01:30:25;;;;;;;40.97;16.00;;;;;;;7.91;52.01;97573.81;4486775;32;20085;-78
2023/03/07 01:32:55;;;;;;;36.45;16.23;;;;;;;7.91;51.70;97579.06;4487011;31;20159;-79
2023/03/07 01:35:20;;;;;;;36.35;15.48;;;;;;;7.89;51.63;97580.94;4486829;31;20156;-78
2023/03/07 01:37:48;;;;;;;37.63;16.92;;;;;;;7.83;51.65;97581.34;4485471;32;20416;-79
2023/03/07 01:40:13;;;;;;;41.53;15.00;;;;;;;7.85;51.60;97582.91;4486730;31;20196;-78
2023/03/07 01:42:39;;;;;;;32.00;14.20;;;;;;;7.66;51.62;97582.38;4486719;32;20096;-78
2023/03/07 01:45:33;;;;;;;30.50;15.25;;;;;;;7.82;51.23;97577.87;4486758;31;20089;-79
2023/03/07 01:47:58;;;;;;;31.10;14.40;;;;;;;7.85;51.04;97577.66;4486666;31;20085;-78
2023/03/07 01:50:24;;;;;;;32.88;14.57;;;;;;;7.94;50.83;97575.38;4486691;31;20097;-78
2023/03/07 01:52:52;;;;;;;32.63;13.68;;;;;;;7.78;50.96;97573.72;4485324;32;20105;-78
2023/03/07 01:55:21;;;;;;;32.90;14.15;;;;;;;7.92;50.73;97574.66;4472278;32;20110;-78
2023/03/07 01:57:48;;;;;;;32.75;14.87;;;;;;;7.89;50.68;97573.06;4485125;32;21274;-78
2023/03/07 02:00:22;;;;;;;31.37;14.77;;;;;;;7.87;50.69;97567.09;4485319;32;20092;-79
2023/03/07 02:03:06;;;;;;;32.30;14.90;;;;;;;7.81;50.62;97570.09;4485503;32;20088;-78
2023/03/07 02:05:34;;;;;;;30.35;14.40;;;;;;;7.91;50.41;97568.56;4485693;32;20831;-78
2023/03/07 02:07:59;;;;;;;;;;;;;;;7.99;50.30;97558.44;4487004;31;20148;-78
2023/03/07 02:10:25;;;;;;;31.52;13.48;;;;;;;7.80;50.33;97558.78;4486667;31;19976;-78
2023/03/07 02:12:52;;;;;;;33.22;14.60;;;;;;;7.91;50.18;97557.25;4486623;31;20145;-78
2023/03/07 02:15:18;;;;;;;28.45;13.90;;;;;;;7.94;50.21;97562.28;4486550;31;20424;-78
2023/03/07 02:17:44;;;;;;;31.65;14.70;;;;;;;7.95;50.23;97550.88;4486103;31;20127;-78
2023/03/07 02:20:46;;;;;;;33.42;14.82;;;;;;;7.83;50.30;97544.63;4487078;31;20084;-79
2023/03/07 02:23:20;;;;;;;31.65;13.90;;;;;;;7.85;50.36;97556.69;4488326;31;20118;-78
2023/03/07 02:25:51;;;;;;;29.65;13.62;;;;;;;7.96;50.28;97552.53;4487010;32;20119;-78
2023/03/07 02:28:17;;;;;;;32.10;14.23;;;;;;;7.99;50.10;97553.19;4488261;32;20153;-78
2023/03/07 02:30:57;;;;;;;31.48;14.27;;;;;;;8.03;49.92;97551.22;4488199;31;20172;-79
2023/03/07 02:33:23;;;;;;;33.08;14.18;;;;;;;8.03;49.93;97554.66;4488271;31;20144;-79
2023/03/07 02:35:52;;;;;;;32.35;14.70;;;;;;;8.07;49.89;97544.81;4488105;31;20081;-78
2023/03/07 02:38:18;;;;;;;31.27;13.73;;;;;;;8.08;49.90;97554.37;4486966;32;20103;-78
2023/03/07 02:40:43;;;;;;;30.75;13.57;;;;;;;8.10;50.02;97562.16;4488025;32;20399;-78
2023/03/07 02:43:09;;;;;;;27.98;12.88;;;;;;;8.10;49.98;97560.38;4486827;32;20092;-78
2023/03/07 02:45:34;;;;;;;30.48;14.52;;;;;;;8.10;49.80;97563.00;4487257;32;20141;-78
2023/03/07 02:48:00;;;;;;;28.48;12.73;;;;;;;8.10;49.55;97555.13;4487982;31;20128;-78
2023/03/07 02:50:26;;;;;;;29.52;13.00;;;;;;;8.12;49.47;97552.41;4487114;32;20104;-79
2023/03/07 02:52:51;;;;;;;32.00;12.60;;;;;;;8.06;49.27;97551.84;4488225;31;20156;-79
2023/03/07 02:55:16;;;;;;;28.42;13.25;;;;;;;8.05;49.01;97559.81;4488286;31;20107;-78
2023/03/07 02:57:42;;;;;;;30.12;13.02;;;;;;;8.13;48.79;97556.72;4488143;31;20092;-79
2023/03/07 03:00:10;;;;;;;31.77;13.80;;;;;;;8.10;48.73;97567.41;4488071;32;20130;-78
2023/03/07 03:02:36;;;;;;;30.70;13.23;;;;;;;8.16;48.57;97557.34;4487198;32;20092;-78
2023/03/07 03:05:02;;;;;;;30.73;12.93;;;;;;;8.21;48.32;97559.69;4488197;31;20092;-79
2023/03/07 03:07:27;;;;;;;30.15;13.60;;;;;;;7.96;48.67;97565.66;4488162;31;20084;-78
2023/03/07 03:09:53;;;;;;;26.17;11.95;;;;;;;8.02;48.42;97557.41;4488234;31;20122;-79
2023/03/07 03:12:18;;;;;;;28.75;13.95;;;;;;;8.07;48.40;97553.56;4487977;31;20330;-78
2023/03/07 03:14:44;;;;;;;30.65;13.68;;;;;;;7.68;49.08;97556.91;4488114;31;20107;-78
2023/03/07 03:17:09;;;;;;;31.08;14.05;;;;;;;7.65;49.25;97555.34;4488192;31;20084;-78
2023/03/07 03:19:35;;;;;;;27.67;12.98;;;;;;;7.94;48.74;97557.91;4487997;31;20428;-78
2023/03/07 03:22:00;;;;;;;30.98;13.45;;;;;;;7.95;48.76;97554.31;4488098;31;20100;-78
2023/03/07 03:24:26;;;;;;;29.58;13.00;;;;;;;8.01;48.69;97553.91;4487980;31;20118;-78
2023/03/07 03:26:54;;;;;;;30.45;12.93;;;;;;;7.59;49.50;97560.97;4488091;31;20502;-78
2023/03/07 03:29:20;;;;;;;30.00;13.15;;;;;;;7.90;49.14;97559.03;4487979;31;20440;-79
2023/03/07 03:31:45;;;;;;;28.87;13.10;;;;;;;7.98;48.79;97553.31;4487596;32;20119;-78
2023/03/07 03:34:12;;;;;;;29.10;12.65;;;;;;;8.04;48.63;97556.38;4487958;31;20119;-79
2023/03/07 03:36:38;;;;;;;28.92;13.18;;;;;;;7.94;48.65;97542.16;4486504;32;20150;-78
2023/03/07 03:39:05;;;;;;;27.10;13.15;;;;;;;7.94;48.68;97544.78;4487629;31;20093;-78
2023/03/07 03:41:31;;;;;;;29.37;12.63;;;;;;;7.54;49.52;97549.06;4487734;31;20084;-78
2023/03/07 03:43:56;;;;;;;31.55;13.13;;;;;;;7.79;48.98;97549.22;4486687;32;20370;-78
2023/03/07 03:46:22;;;;;;;26.37;12.45;;;;;;;7.90;48.72;97543.31;4487878;31;20129;-78
2023/03/07 03:48:54;;;;;;;28.83;13.35;;;;;;;7.90;48.82;97540.69;4487849;31;20119;-79
2023/03/07 03:51:21;;;;;;;30.10;13.77;;;;;;;7.98;48.85;97537.56;4487902;31;20174;-79
2023/03/07 03:53:47;;;;;;;27.65;12.52;;;;;;;8.00;48.84;97539.16;4486740;32;20084;-79
2023/03/07 03:56:17;;;;;;;33.22;13.20;;;;;;;8.03;48.93;97538.09;4487437;31;20080;-78
2023/03/07 03:58:46;;;;;;;29.80;12.88;;;;;;;8.01;48.89;97546.06;4487320;31;20165;-79
2023/03/07 04:01:11;;;;;;;34.45;14.38;;;;;;;8.06;48.67;97549.22;4486547;32;20542;-78
2023/03/07 04:03:39;;;;;;;32.38;13.25;;;;;;;7.99;48.59;97545.31;4486557;32;20084;-78
2023/03/07 04:06:07;;;;;;;30.77;12.52;;;;;;;7.95;48.71;97543.84;4487843;31;20089;-78
2023/03/07 04:08:33;;;;;;;28.73;13.05;;;;;;;7.98;48.52;97542.81;4487800;31;20482;-78
2023/03/07 04:10:59;;;;;;;28.80;12.52;;;;;;;7.92;48.70;97541.44;4487481;31;20160;-79
2023/03/07 04:13:24;;;;;;;30.92;12.88;;;;;;;7.80;48.83;97547.44;4486327;32;20084;-79
2023/03/07 04:15:51;;;;;;;32.47;12.27;;;;;;;7.85;48.70;97548.00;4487411;31;20080;-79
2023/03/07 04:18:20;;;;;;;28.67;12.27;;;;;;;7.86;48.56;97544.41;4487478;31;20161;-78
2023/03/07 04:20:48;;;;;;;26.85;12.13;;;;;;;7.67;48.54;97542.13;4487419;31;20376;-78
2023/03/07 04:23:13;;;;;;;;;;;;;;;7.85;48.17;97543.56;4486580;32;20088;-78
2023/03/07 04:25:39;;;;;;;28.00;12.00;;;;;;;7.95;48.21;97543.00;4487281;32;20238;-78
2023/03/07 04:28:04;;;;;;;29.83;11.85;;;;;;;7.85;48.31;97556.69;4487461;31;20111;-79
2023/03/07 04:30:30;;;;;;;29.77;12.10;;;;;;;7.90;48.23;97558.16;4486179;32;20100;-78
2023/03/07 04:32:55;;;;;;;27.60;11.27;;;;;;;7.84;48.38;97554.16;4487413;31;20072;-79
2023/03/07 04:35:21;;;;;;;31.15;11.95;;;;;;;7.86;48.37;97558.38;4487383;31;20080;-78
2023/03/07 04:37:46;;;;;;;31.30;12.23;;;;;;;7.87;48.39;97557.44;4487216;31;20115;-78
2023/03/07 04:40:12;;;;;;;29.65;12.50;;;;;;;7.75;48.23;97557.38;4487251;31;20133;-79
2023/03/07 04:42:37;;;;;;;22.55;11.02;;;;;;;7.75;48.20;97560.00;4485025;32;20110;-78
2023/03/07 04:45:03;;;;;;;25.77;10.63;;;;;;;7.66;47.93;97562.25;4487220;31;20177;-79
2023/03/07 04:47:29;;;;;;;25.27;10.07;;;;;;;7.74;47.50;97563.53;4485952;32;20345;-79
2023/03/07 04:49:54;;;;;;;26.05;10.65;;;;;;;7.79;47.21;97554.47;4487295;31;20080;-78
2023/03/07 04:52:19;;;;;;;23.90;10.18;;;;;;;7.72;47.00;97566.25;4487204;32;20084;-78
2023/03/07 04:54:45;;;;;;;25.67;10.25;;;;;;;7.78;46.94;97571.09;4487088;31;20446;-78
2023/03/07 04:57:10;;;;;;;24.00;10.00;;;;;;;7.58;46.50;97569.75;4487139;32;20424;-79
2023/03/07 04:59:38;;;;;;;24.17;10.32;;;;;;;7.78;46.03;97565.88;4486865;31;20132;-79
2023/03/07 05:02:08;;;;;;;27.48;10.73;;;;;;;7.79;46.04;97564.13;4487160;31;20422;-78
2023/03/07 05:04:33;;;;;;;24.27;9.85;;;;;;;7.81;46.22;97567.47;4485903;32;20179;-78
2023/03/07 05:06:59;;;;;;;28.10;10.20;;;;;;;7.86;46.20;97568.88;4485937;32;20088;-78
2023/03/07 05:09:24;;;;;;;22.83;9.32;;;;;;;7.82;46.31;97572.63;4486919;31;20133;-79
2023/03/07 05:11:50;;;;;;;24.52;11.55;;;;;;;7.81;46.44;97564.84;4486917;31;20087;-78
2023/03/07 05:14:15;;;;;;;22.35;9.68;;;;;;;7.84;46.54;97565.50;4486854;31;20092;-79
2023/03/07 05:16:41;;;;;;;24.52;9.75;;;;;;;7.87;46.53;97567.09;4486825;31;20119;-78
2023/03/07 05:19:07;;;;;;;25.30;9.77;;;;;;;7.87;46.32;97573.16;4486810;31;20068;-78
2023/03/07 05:21:33;;;;;;;25.75;9.73;;;;;;;7.88;46.15;97566.16;4485688;32;20080;-79
2023/03/07 05:23:58;;;;;;;23.38;9.80;;;;;;;7.86;46.16;97568.00;4486953;31;20114;-78
2023/03/07 05:26:23;;;;;;;22.67;9.35;;;;;;;7.82;46.27;97571.75;4485829;32;20376;-78
2023/03/07 05:28:49;;;;;;;24.25;9.65;;;;;;;7.84;46.23;97568.13;4486960;31;20088;-79
2023/03/07 05:31:14;;;;;;;22.45;8.85;;;;;;;7.85;46.16;97575.03;4485663;32;20103;-78
2023/03/07 05:33:41;;;;;;;22.55;9.10;;;;;;;7.91;46.05;97580.84;4486939;31;20434;-78
2023/03/07 05:36:07;;;;;;;24.08;10.13;;;;;;;7.91;45.99;97572.97;4486872;31;20467;-79
2023/03/07 05:38:33;;;;;;;20.15;8.45;;;;;;;7.87;45.81;97577.56;4485667;32;20104;-78
2023/03/07 05:40:58;;;;;;;24.98;8.77;;;;;;;7.87;45.83;97581.03;4486946;31;20434;-78
2023/03/07 05:43:24;;;;;;;23.38;8.90;;;;;;;7.91;45.18;97583.47;4486809;31;20375;-78
2023/03/07 05:45:49;;;;;;;20.23;8.43;;;;;;;7.73;44.16;97570.56;4485593;32;20376;-79
2023/03/07 05:48:15;;;;;;;19.87;8.35;;;;;;;7.88;43.91;97576.66;4485217;32;20104;-78
2023/03/07 05:50:41;;;;;;;21.65;7.70;;;;;;;7.95;43.74;97577.09;4486609;31;20435;-79
2023/03/07 05:53:07;;;;;;;21.25;8.35;;;;;;;7.98;43.93;97580.38;4486612;31;20513;-79
2023/03/07 05:55:33;;;;;;;21.12;8.65;;;;;;;8.06;44.05;97577.25;4485214;32;20105;-79
2023/03/07 05:57:58;;;;;;;22.33;8.85;;;;;;;8.13;43.84;97580.31;4486121;31;20104;-78
2023/03/07 06:00:24;;;;;;;19.92;8.30;;;;;;;8.19;43.67;97579.91;4486395;32;20072;-78
2023/03/07 06:02:49;;;;;;;21.17;8.75;;;;;;;8.22;43.66;97585.81;4486549;31;20091;-78
2023/03/07 06:05:15;;;;;;;22.55;8.63;;;;;;;8.25;43.65;97584.78;4486489;31;20115;-78
2023/03/07 06:07:40;;;;;;;19.92;7.97;;;;;;;8.32;43.79;97587.84;4485104;32;20096;-78
2023/03/07 06:10:06;;;;;;;20.52;8.35;;;;;;;8.40;43.79;97586.44;4486411;31;20493;-79
2023/03/07 06:12:31;;;;;;;21.60;8.63;;;;;;;8.35;43.36;97585.03;4486535;31;20108;-79
2023/03/07 06:14:57;;;;;;;17.42;7.25;;;;;;;8.41;43.28;97590.75;4486193;31;20140;-79
2023/03/07 06:17:22;;;;;;;23.30;9.20;;;;;;;8.51;43.22;97598.03;4486305;32;20110;-79
2023/03/07 06:19:48;;;;;;;20.98;9.18;;;;;;;8.58;43.01;97596.69;4486270;31;20115;-79
2023/03/07 06:22:13;;;;;;;19.48;8.15;;;;;;;8.62;43.30;97591.13;4485058;32;20081;-79
2023/03/07 06:24:38;;;;;;;22.73;8.82;;;;;;;8.59;43.85;97600.97;4485954;31;20092;-79
2023/03/07 06:27:04;;;;;;;20.35;8.43;;;;;;;8.63;44.05;97607.72;4486121;31;20423;-79
2023/03/07 06:29:29;;;;;;;20.35;8.35;;;;;;;8.67;43.71;97611.81;4486076;31;20103;-78
2023/03/07 06:31:55;;;;;;;22.45;9.43;;;;;;;8.52;46.08;97610.19;4486023;32;20103;-79
2023/03/07 06:34:20;;;;;;;21.00;8.57;;;;;;;8.61;44.73;97606.97;4485979;31;20106;-79
2023/03/07 06:36:47;;;;;;;20.30;8.90;;;;;;;8.70;43.80;97603.75;4485963;32;20381;-79
2023/03/07 06:39:15;;;;;;;20.62;8.93;;;;;;;8.64;42.64;97605.00;4485854;31;20161;-79
2023/03/07 06:41:41;;;;;;;20.67;8.60;;;;;;;8.82;42.51;97604.72;4485965;31;20102;-79
2023/03/07 06:44:07;;;;;;;21.30;8.13;;;;;;;8.89;42.37;97598.13;4484780;32;20100;-78
2023/03/07 06:46:33;;;;;;;21.12;8.77;;;;;;;9.03;42.83;97603.28;4485893;31;20368;-79
2023/03/07 06:48:58;;;;;;;21.20;9.15;;;;;;;9.17;43.16;97602.34;4486122;31;20080;-79
2023/03/07 06:51:24;;;;;;;20.70;8.52;;;;;;;9.27;43.67;97606.97;4484816;32;20391;-79
2023/03/07 06:53:49;;;;;;;22.60;9.40;;;;;;;9.30;44.04;97606.78;4485690;31;20097;-79
2023/03/07 06:56:15;;;;;;;22.80;10.15;;;;;;;9.50;43.47;97614.13;4485854;31;20110;-79
2023/03/07 06:58:40;;;;;;;23.35;9.52;;;;;;;9.48;43.32;97617.81;4485625;31;20505;-78
2023/03/07 07:01:06;;;;;;;24.58;10.50;;;;;;;9.49;43.79;97615.09;4485827;32;20081;-79
2023/03/07 07:03:31;;;;;;;25.45;11.45;;;;;;;9.57;44.05;97610.13;4485889;31;20522;-78
2023/03/07 07:05:56;;;;;;;25.33;10.93;;;;;;;9.60;44.33;97609.94;4486918;31;20108;-79
2023/03/07 07:08:22;;;;;;;25.00;11.10;;;;;;;9.69;44.37;97608.44;4488172;32;20085;-79
2023/03/07 07:10:47;;;;;;;23.23;10.55;;;;;;;9.85;43.96;97613.47;4488102;31;20117;-79
2023/03/07 07:13:13;;;;;;;24.25;10.15;;;;;;;9.89;43.88;97612.31;4488149;31;20081;-79
2023/03/07 07:15:39;;;;;;;22.83;10.00;;;;;;;9.91;44.03;97606.91;4488159;31;20099;-79
2023/03/07 07:18:04;;;;;;;25.08;10.27;;;;;;;9.98;43.87;97611.62;4487959;31;20152;-78
2023/03/07 07:20:30;;;;;;;24.63;10.85;;;;;;;10.10;43.28;97606.47;4486876;32;20103;-79
2023/03/07 07:22:55;;;;;;;21.58;9.95;;;;;;;10.11;42.54;97618.69;4488055;31;20085;-79
2023/03/07 07:25:21;;;;;;;24.95;10.63;;;;;;;10.11;41.71;97611.62;4488136;31;20088;-79
2023/03/07 07:27:46;;;;;;;26.73;10.52;;;;;;;10.18;41.77;97612.03;4486850;32;20089;-79
2023/03/07 07:30:12;;;;;;;24.58;11.23;;;;;;;10.31;41.39;97618.09;4486418;32;20147;-79
2023/03/07 07:32:38;;;;;;;24.02;10.30;;;;;;;10.18;41.48;97617.28;4487991;31;20134;-79
2023/03/07 07:35:04;;;;;;;23.50;9.85;;;;;;;10.32;40.93;97619.78;4487667;31;20092;-79
2023/03/07 07:37:29;;;;;;;25.00;10.95;;;;;;;10.44;40.25;97620.69;4487565;31;20433;-79
2023/03/07 07:39:55;;;;;;;23.23;9.32;;;;;;;10.49;40.37;97621.22;4493049;31;20088;-82
2023/03/07 07:42:20;;;;;;;21.73;9.35;;;;;;;10.61;40.39;97619.47;4487637;31;20076;-78
2023/03/07 07:44:47;;;;;;;23.90;10.77;;;;;;;10.62;40.13;97622.00;4485746;31;20140;-79
2023/03/07 07:47:12;;;;;;;26.75;11.05;;;;;;;10.72;40.01;97622.16;4486272;31;20093;-83
2023/03/07 07:49:38;;;;;;;24.67;11.30;;;;;;;10.66;40.64;97630.50;4487185;32;20317;-82
2023/03/07 07:52:03;;;;;;;25.62;11.10;;;;;;;10.77;40.45;97627.91;4487397;32;20115;-75
2023/03/07 07:54:29;;;;;;;26.25;12.00;;;;;;;10.60;40.58;97623.91;4487351;31;20128;-77
2023/03/07 07:56:56;;;;;;;29.50;13.15;;;;;;;10.82;40.36;97622.31;4494390;31;20106;-75
2023/03/07 07:59:21;;;;;;;30.07;13.43;;;;;;;10.94;40.85;97626.66;4494591;31;20095;-76
2023/03/07 08:01:47;;;;;;;30.33;13.98;;;;;;;11.02;41.20;97618.19;4493905;31;20109;-77
2023/03/07 08:04:12;;;;;;;26.27;11.95;;;;;;;11.17;41.06;97616.19;4495403;31;20084;-75
2023/03/07 08:06:38;;;;;;;29.05;13.45;;;;;;;11.18;40.23;97620.50;4494382;31;20089;-79
2023/03/07 08:09:04;;;;;;;30.35;14.10;;;;;;;11.23;40.49;97622.81;4497850;31;20083;-79
2023/03/07 08:11:30;;;;;;;29.52;13.45;;;;;;;11.23;40.51;97623.63;4500872;31;20132;-80
2023/03/07 08:13:55;;;;;;;28.42;12.10;;;;;;;11.31;40.23;97620.41;4502075;31;20110;-80
2023/03/07 08:16:22;;;;;;;23.77;10.32;;;;;;;11.35;39.72;97620.06;4489206;31;20094;-80
2023/03/07 08:18:49;;;;;;;28.30;11.65;;;;;;;11.37;38.19;97618.13;4503004;31;20084;-80
2023/03/07 08:21:15;;;;;;;29.52;13.93;;;;;;;11.46;37.92;97621.03;4503184;31;20127;-80
2023/03/07 08:23:40;;;;;;;30.50;13.07;;;;;;;11.20;40.16;97623.84;4488886;31;20427;-79
2023/03/07 08:26:07;;;;;;;28.95;12.98;;;;;;;11.14;40.28;97624.31;4502917;31;20445;-80
2023/03/07 08:28:33;;;;;;;28.13;11.57;;;;;;;11.14;40.04;97626.97;4503161;31;20496;-80
2023/03/07 08:30:58;;;;;;;24.70;11.40;;;;;;;11.31;38.71;97623.06;4503055;31;20208;-80
2023/03/07 08:33:23;;;;;;;22.87;9.60;;;;;;;11.44;38.08;97621.16;4488637;31;20092;-80
2023/03/07 08:35:49;;;;;;;26.40;11.75;;;;;;;11.45;36.88;97622.81;4503167;31;20106;-80
2023/03/07 08:38:14;;;;;;;26.15;11.60;;;;;;;11.21;38.03;97634.28;4502953;31;20123;-80
2023/03/07 08:40:40;;;;;;;22.13;8.35;;;;;;;11.49;38.37;97620.78;4503103;31;20092;-80
2023/03/07 08:43:05;;;;;;;18.30;7.47;;;;;;;11.39;34.71;97615.37;4503092;31;20136;-80
2023/03/07 08:45:31;;;;;;;18.30;7.90;;;;;;;11.30;34.41;97630.13;4475803;31;20090;-80
2023/03/07 08:47:56;;;;;;;18.67;7.97;;;;;;;11.09;34.50;97629.13;4503320;31;20077;-80
2023/03/07 08:50:25;;;;;;;19.37;7.68;;;;;;;11.14;34.71;97624.31;4488866;31;20111;-80
2023/03/07 08:52:50;;;;;;;19.80;7.95;;;;;;;11.01;35.88;97634.97;4488998;31;20151;-80
2023/03/07 08:55:16;;;;;;;18.45;8.23;;;;;;;11.36;35.52;97629.66;4503008;31;20083;-80
2023/03/07 08:57:42;;;;;;;17.50;7.75;;;;;;;11.44;35.18;97629.06;4502752;31;20424;-80
2023/03/07 09:00:08;;;;;;;19.50;7.93;;;;;;;11.54;35.05;97635.31;4488457;31;20417;-79
2023/03/07 09:02:34;;;;;;;19.67;8.07;;;;;;;11.64;34.17;97630.16;4502936;31;20092;-80
2023/03/07 09:04:59;;;;;;;16.60;7.47;;;;;;;11.82;34.61;97635.81;4502891;31;20359;-80
2023/03/07 09:07:26;;;;;;;17.62;7.47;;;;;;;11.59;34.33;97633.16;4502843;31;20099;-80
2023/03/07 09:09:51;;;;;;;20.08;8.60;;;;;;;11.28;34.88;97633.81;4503070;31;20143;-80
2023/03/07 09:12:17;;;;;;;19.02;8.30;;;;;;;11.66;34.49;97632.69;4503116;31;20412;-80
2023/03/07 09:14:42;;;;;;;22.83;9.20;;;;;;;11.66;34.48;97632.69;4488541;31;20080;-80
2023/03/07 09:17:08;;;;;;;21.42;8.60;;;;;;;10.79;36.73;97641.81;4488405;31;20419;-80
2023/03/07 09:19:34;;;;;;;22.40;8.90;;;;;;;11.10;35.44;97644.78;4502798;31;20076;-80
2023/03/07 09:21:59;;;;;;;18.48;7.95;;;;;;;11.57;35.05;97631.59;4502712;31;20114;-79
2023/03/07 09:24:25;;;;;;;21.65;9.10;;;;;;;11.72;34.55;97633.03;4502741;31;20109;-79
2023/03/07 09:26:51;;;;;;;22.35;9.10;;;;;;;11.75;34.84;97631.97;4488570;31;20439;-79
2023/03/07 09:29:17;;;;;;;19.70;9.30;;;;;;;11.74;34.91;97633.78;4502290;31;20095;-79
2023/03/07 09:31:43;;;;;;;22.75;8.75;;;;;;;11.73;35.44;97626.81;4488557;31;20461;-80
2023/03/07 09:34:08;;;;;;;21.12;8.60;;;;;;;11.72;34.93;97637.47;4502899;31;20068;-79
2023/03/07 09:36:35;;;;;;;19.30;8.20;;;;;;;12.10;34.32;97631.88;4488257;31;20136;-80
2023/03/07 09:39:00;;;;;;;24.33;9.32;;;;;;;12.30;34.19;97624.16;4502605;31;20092;-79
2023/03/07 09:41:32;;;;;;;23.40;9.27;;;;;;;12.28;33.88;97626.91;4502628;31;20381;-79
2023/03/07 09:44:09;;;;;;;21.85;9.48;;;;;;;12.33;33.66;97629.19;4502623;31;20076;-79
2023/03/07 09:46:50;;;;;;;24.33;10.30;;;;;;;11.94;34.33;97626.97;4502464;31;20140;-80
2023/03/07 09:49:25;;;;;;;25.92;10.32;;;;;;;11.34;35.69;97628.94;4502516;31;20126;-80
2023/03/07 09:51:54;;;;;;;22.37;10.82;;;;;;;11.46;36.16;97631.59;4502628;31;20079;-80
2023/03/07 09:54:21;;;;;;;22.73;9.95;;;;;;;11.61;35.04;97625.13;4488089;31;20159;-80
2023/03/07 09:56:59;;;;;;;23.75;8.95;;;;;;;12.20;34.30;97621.41;4488400;31;20404;-80
2023/03/07 09:59:38;;;;;;;21.17;8.60;;;;;;;12.23;34.04;97621.19;4487877;31;20521;-80
2023/03/07 10:02:10;;;;;;;19.30;8.10;;;;;;;12.19;33.34;97620.59;4502503;31;20389;-80
2023/03/07 10:05:00;;;;;;;18.35;7.68;;;;;;;11.89;32.85;97622.97;4502396;31;20087;-80
2023/03/07 10:07:26;;;;;;;20.15;8.63;;;;;;;11.98;32.80;97623.13;4502261;31;20067;-80
2023/03/07 10:10:01;;;;;;;14.45;5.97;;;;;;;12.46;31.91;97629.91;4488101;31;20139;-80
2023/03/07 10:12:45;;;;;;;18.75;7.15;;;;;;;11.99;31.51;97621.31;4502507;31;20088;-79
2023/03/07 10:15:18;;;;;;;15.98;6.45;;;;;;;12.33;31.85;97630.03;4502132;31;20088;-80
2023/03/07 10:18:18;;;;;;;14.77;6.00;;;;;;;12.36;32.11;97631.56;4487757;31;20140;-80
2023/03/07 10:21:08;;;;;;;13.62;5.87;;;;;;;12.07;32.14;97636.53;4502321;31;20159;-80
2023/03/07 10:23:33;;;;;;;14.70;5.28;;;;;;;12.76;31.77;97634.47;4502054;31;20110;-80
2023/03/07 10:26:11;;;;;;;18.20;5.90;;;;;;;12.65;31.09;97631.88;4501963;31;20076;-80
2023/03/07 10:28:41;;;;;;;15.98;6.32;;;;;;;12.56;31.85;97625.53;4501886;31;20080;-80
2023/03/07 10:31:18;;;;;;;18.77;7.20;;;;;;;13.01;31.08;97628.97;4474437;31;20111;-80
2023/03/07 10:33:47;;;;;;;19.62;8.15;;;;;;;13.23;30.95;97622.72;4501951;31;20088;-80
2023/03/07 10:36:17;;;;;;;19.62;8.65;;;;;;;13.40;30.66;97629.25;4487584;31;20110;-80
2023/03/07 10:38:54;;;;;;;20.75;8.45;;;;;;;12.65;33.13;97620.47;4501640;31;20148;-80
2023/03/07 10:41:20;;;;;;;15.23;6.47;;;;;;;13.34;31.95;97622.69;4503097;31;20495;-80
2023/03/07 10:43:47;;;;;;;18.92;7.47;;;;;;;13.04;31.14;97620.78;4489981;31;20110;-80
2023/03/07 10:46:20;;;;;;;20.10;7.00;;;;;;;13.23;31.49;97606.84;4503891;31;20092;-80
2023/03/07 10:48:57;;;;;;;15.70;6.62;;;;;;;13.20;31.59;97609.78;4503914;31;20117;-80
2023/03/07 10:51:43;;;;;;;17.73;7.55;;;;;;;13.60;31.34;97606.38;4489568;31;20104;-80
2023/03/07 10:54:21;;;;;;;18.17;7.28;;;;;;;13.07;31.33;97600.19;4504117;31;20140;-80
2023/03/07 10:57:15;;;;;;;18.37;7.72;;;;;;;13.80;30.58;97596.75;4489628;31;20084;-80
2023/03/07 10:59:48;;;;;;;19.87;7.95;;;;;;;14.00;30.18;97592.34;4503660;31;20106;-80
2023/03/07 11:02:25;;;;;;;19.10;8.25;;;;;;;14.10;29.89;97583.47;4489916;31;20662;-80
2023/03/07 11:04:51;;;;;;;16.98;7.97;;;;;;;14.16;29.89;97582.94;4503903;31;20491;-80
2023/03/07 11:07:28;;;;;;;18.40;8.38;;;;;;;13.97;30.44;97577.59;4489260;31;20088;-80
2023/03/07 11:09:55;;;;;;;18.10;7.55;;;;;;;13.48;31.36;97581.81;4489470;31;20114;-80
2023/03/07 11:12:23;;;;;;;17.48;8.13;;;;;;;13.62;31.30;97586.78;4489327;31;20109;-81
2023/03/07 11:14:50;;;;;;;18.62;8.05;;;;;;;13.56;31.27;97577.56;4503680;31;20114;-80
2023/03/07 11:17:26;;;;;;;19.55;8.38;;;;;;;13.71;30.86;97571.91;4489222;31;20111;-80
2023/03/07 11:19:56;;;;;;;19.90;8.18;;;;;;;13.65;31.07;97570.63;4489604;31;20428;-80
2023/03/07 11:22:35;;;;;;;18.20;7.95;;;;;;;13.78;30.86;97565.12;4503563;31;20096;-80
2023/03/07 11:25:02;;;;;;;19.87;8.63;;;;;;;13.91;30.73;97560.41;4489690;31;20104;-80
2023/03/07 11:27:49;;;;;;;19.83;8.95;;;;;;;13.87;31.17;97556.38;4489197;31;20083;-80
2023/03/07 11:30:49;;;;;;;20.35;9.18;;;;;;;13.14;32.88;97556.41;4503540;31;20491;-80